sensor_id;sensor_type;location;lat;lon;timestamp;P1;durP1;ratioP1;P2;durP2;ratioP2
11328;SDS011;5719;42.714;23.732;2023-07-09T00:00:55;6.78;;;4.50;;
11328;SDS011;5719;42.714;23.732;2023-07-09T00:03:22;9.10;;;4.28;;
11328;SDS011;5719;42.714;23.732;2023-07-09T00:05:49;6.55;;;4.20;;
11328;SDS011;5719;42.714;23.732;2023-07-09T00:08:21;7.28;;;4.63;;
11328;SDS011;5719;42.714;23.732;2023-07-09T00:10:53;8.80;;;4.80;;
11328;SDS011;5719;42.714;23.732;2023-07-09T00:13:22;5.68;;;4.60;;
11328;SDS011;5719;42.714;23.732;2023-07-09T00:15:50;7.07;;;4.70;;
11328;SDS011;5719;42.714;23.732;2023-07-09T00:18:17;9.73;;;4.53;;
11328;SDS011;5719;42.714;23.732;2023-07-09T00:20:44;8.98;;;4.75;;
11328;SDS011;5719;42.714;23.732;2023-07-09T00:23:13;6.20;;;4.47;;
11328;SDS011;5719;42.714;23.732;2023-07-09T00:25:41;5.25;;;4.53;;
11328;SDS011;5719;42.714;23.732;2023-07-09T00:28:11;8.07;;;4.15;;
11328;SDS011;5719;42.714;23.732;2023-07-09T00:30:41;4.60;;;4.20;;
11328;SDS011;5719;42.714;23.732;2023-07-09T00:33:09;8.35;;;4.90;;
11328;SDS011;5719;42.714;23.732;2023-07-09T00:35:38;5.25;;;4.22;;
11328;SDS011;5719;42.714;23.732;2023-07-09T00:38:07;4.72;;;4.35;;
11328;SDS011;5719;42.714;23.732;2023-07-09T00:43:12;7.68;;;4.30;;
11328;SDS011;5719;42.714;23.732;2023-07-09T00:45:43;4.47;;;4.07;;
11328;SDS011;5719;42.714;23.732;2023-07-09T00:48:11;5.00;;;4.10;;
11328;SDS011;5719;42.714;23.732;2023-07-09T00:50:42;5.82;;;4.43;;
11328;SDS011;5719;42.714;23.732;2023-07-09T00:53:16;7.07;;;4.32;;
11328;SDS011;5719;42.714;23.732;2023-07-09T00:55:46;12.02;;;4.85;;
11328;SDS011;5719;42.714;23.732;2023-07-09T00:58:17;6.63;;;4.72;;
11328;SDS011;5719;42.714;23.732;2023-07-09T01:00:47;6.63;;;4.78;;
11328;SDS011;5719;42.714;23.732;2023-07-09T01:03:21;6.05;;;5.15;;
11328;SDS011;5719;42.714;23.732;2023-07-09T01:05:54;8.98;;;4.70;;
11328;SDS011;5719;42.714;23.732;2023-07-09T01:08:24;8.18;;;4.57;;
11328;SDS011;5719;42.714;23.732;2023-07-09T01:10:55;5.53;;;4.25;;
11328;SDS011;5719;42.714;23.732;2023-07-09T01:13:23;4.70;;;4.30;;
11328;SDS011;5719;42.714;23.732;2023-07-09T01:15:52;4.82;;;4.32;;
11328;SDS011;5719;42.714;23.732;2023-07-09T01:18:20;7.68;;;4.63;;
11328;SDS011;5719;42.714;23.732;2023-07-09T01:20:49;7.10;;;4.57;;
11328;SDS011;5719;42.714;23.732;2023-07-09T01:23:19;7.35;;;4.03;;
11328;SDS011;5719;42.714;23.732;2023-07-09T01:25:46;7.35;;;4.40;;
11328;SDS011;5719;42.714;23.732;2023-07-09T01:28:18;6.68;;;4.03;;
11328;SDS011;5719;42.714;23.732;2023-07-09T01:30:45;9.98;;;4.38;;
11328;SDS011;5719;42.714;23.732;2023-07-09T01:33:14;4.32;;;3.60;;
11328;SDS011;5719;42.714;23.732;2023-07-09T01:35:41;8.50;;;4.07;;
11328;SDS011;5719;42.714;23.732;2023-07-09T01:38:08;4.40;;;3.88;;
11328;SDS011;5719;42.714;23.732;2023-07-09T01:40:37;9.20;;;4.22;;
11328;SDS011;5719;42.714;23.732;2023-07-09T01:43:04;7.00;;;4.60;;
11328;SDS011;5719;42.714;23.732;2023-07-09T01:45:32;6.65;;;4.60;;
11328;SDS011;5719;42.714;23.732;2023-07-09T01:48:01;8.02;;;4.65;;
11328;SDS011;5719;42.714;23.732;2023-07-09T01:50:28;6.30;;;4.82;;
11328;SDS011;5719;42.714;23.732;2023-07-09T01:52:55;4.55;;;4.15;;
11328;SDS011;5719;42.714;23.732;2023-07-09T01:55:23;6.32;;;4.20;;
11328;SDS011;5719;42.714;23.732;2023-07-09T01:57:51;6.60;;;4.53;;
11328;SDS011;5719;42.714;23.732;2023-07-09T02:00:18;10.57;;;4.47;;
11328;SDS011;5719;42.714;23.732;2023-07-09T02:02:46;7.47;;;4.00;;
11328;SDS011;5719;42.714;23.732;2023-07-09T02:05:14;6.57;;;4.22;;
11328;SDS011;5719;42.714;23.732;2023-07-09T02:07:43;8.32;;;3.85;;
11328;SDS011;5719;42.714;23.732;2023-07-09T02:10:10;4.45;;;4.05;;
11328;SDS011;5719;42.714;23.732;2023-07-09T02:12:38;12.30;;;4.72;;
11328;SDS011;5719;42.714;23.732;2023-07-09T02:15:07;6.70;;;4.15;;
11328;SDS011;5719;42.714;23.732;2023-07-09T02:17:35;6.13;;;3.97;;
11328;SDS011;5719;42.714;23.732;2023-07-09T02:20:02;7.38;;;4.32;;
11328;SDS011;5719;42.714;23.732;2023-07-09T02:22:30;5.43;;;3.95;;
11328;SDS011;5719;42.714;23.732;2023-07-09T02:24:57;5.22;;;4.47;;
11328;SDS011;5719;42.714;23.732;2023-07-09T02:27:24;4.90;;;3.85;;
11328;SDS011;5719;42.714;23.732;2023-07-09T02:29:51;5.97;;;4.07;;
11328;SDS011;5719;42.714;23.732;2023-07-09T02:32:21;5.18;;;4.00;;
11328;SDS011;5719;42.714;23.732;2023-07-09T02:34:51;5.07;;;4.20;;
11328;SDS011;5719;42.714;23.732;2023-07-09T02:37:19;7.85;;;3.90;;
11328;SDS011;5719;42.714;23.732;2023-07-09T02:39:47;9.13;;;4.20;;
11328;SDS011;5719;42.714;23.732;2023-07-09T02:42:16;6.32;;;3.90;;
11328;SDS011;5719;42.714;23.732;2023-07-09T02:44:45;4.38;;;3.90;;
11328;SDS011;5719;42.714;23.732;2023-07-09T02:47:13;9.75;;;4.15;;
11328;SDS011;5719;42.714;23.732;2023-07-09T02:49:42;5.20;;;4.03;;
11328;SDS011;5719;42.714;23.732;2023-07-09T02:52:09;5.03;;;4.07;;
11328;SDS011;5719;42.714;23.732;2023-07-09T02:54:36;4.50;;;3.70;;
11328;SDS011;5719;42.714;23.732;2023-07-09T02:57:03;10.20;;;3.92;;
11328;SDS011;5719;42.714;23.732;2023-07-09T02:59:30;9.70;;;4.18;;
11328;SDS011;5719;42.714;23.732;2023-07-09T03:01:58;8.38;;;4.18;;
11328;SDS011;5719;42.714;23.732;2023-07-09T03:04:25;4.55;;;3.90;;
11328;SDS011;5719;42.714;23.732;2023-07-09T03:06:54;4.70;;;4.00;;
11328;SDS011;5719;42.714;23.732;2023-07-09T03:09:21;6.93;;;4.35;;
11328;SDS011;5719;42.714;23.732;2023-07-09T03:11:48;8.27;;;4.32;;
11328;SDS011;5719;42.714;23.732;2023-07-09T03:14:15;4.30;;;3.90;;
11328;SDS011;5719;42.714;23.732;2023-07-09T03:16:42;6.47;;;3.83;;
11328;SDS011;5719;42.714;23.732;2023-07-09T03:19:09;10.45;;;4.45;;
11328;SDS011;5719;42.714;23.732;2023-07-09T03:21:36;8.93;;;4.72;;
11328;SDS011;5719;42.714;23.732;2023-07-09T03:24:05;11.63;;;4.88;;
11328;SDS011;5719;42.714;23.732;2023-07-09T03:26:33;18.33;;;5.50;;
11328;SDS011;5719;42.714;23.732;2023-07-09T03:29:00;8.05;;;5.53;;
11328;SDS011;5719;42.714;23.732;2023-07-09T03:31:27;10.50;;;7.38;;
11328;SDS011;5719;42.714;23.732;2023-07-09T03:33:54;11.13;;;7.47;;
11328;SDS011;5719;42.714;23.732;2023-07-09T03:36:21;7.45;;;6.72;;
11328;SDS011;5719;42.714;23.732;2023-07-09T03:38:48;10.60;;;5.93;;
11328;SDS011;5719;42.714;23.732;2023-07-09T03:41:16;8.40;;;5.93;;
11328;SDS011;5719;42.714;23.732;2023-07-09T03:43:43;15.48;;;8.07;;
11328;SDS011;5719;42.714;23.732;2023-07-09T03:46:10;9.57;;;5.53;;
11328;SDS011;5719;42.714;23.732;2023-07-09T03:48:37;6.32;;;5.47;;
11328;SDS011;5719;42.714;23.732;2023-07-09T03:51:04;9.43;;;5.88;;
11328;SDS011;5719;42.714;23.732;2023-07-09T03:53:31;7.88;;;6.32;;
11328;SDS011;5719;42.714;23.732;2023-07-09T03:55:58;12.50;;;7.88;;
11328;SDS011;5719;42.714;23.732;2023-07-09T03:58:27;11.45;;;8.30;;
11328;SDS011;5719;42.714;23.732;2023-07-09T04:00:54;7.63;;;6.60;;
11328;SDS011;5719;42.714;23.732;2023-07-09T04:03:21;11.27;;;6.25;;
11328;SDS011;5719;42.714;23.732;2023-07-09T04:05:49;8.18;;;6.45;;
11328;SDS011;5719;42.714;23.732;2023-07-09T04:08:15;8.25;;;5.70;;
11328;SDS011;5719;42.714;23.732;2023-07-09T04:10:42;7.93;;;5.30;;
11328;SDS011;5719;42.714;23.732;2023-07-09T04:13:09;6.85;;;5.07;;
11328;SDS011;5719;42.714;23.732;2023-07-09T04:15:38;8.80;;;5.90;;
11328;SDS011;5719;42.714;23.732;2023-07-09T04:18:05;9.30;;;5.85;;
11328;SDS011;5719;42.714;23.732;2023-07-09T04:20:32;6.40;;;5.80;;
11328;SDS011;5719;42.714;23.732;2023-07-09T04:23:00;10.73;;;6.13;;
11328;SDS011;5719;42.714;23.732;2023-07-09T04:25:27;11.23;;;6.22;;
11328;SDS011;5719;42.714;23.732;2023-07-09T04:27:54;27.27;;;6.35;;
11328;SDS011;5719;42.714;23.732;2023-07-09T04:30:21;8.20;;;5.75;;
11328;SDS011;5719;42.714;23.732;2023-07-09T04:32:51;9.75;;;5.75;;
11328;SDS011;5719;42.714;23.732;2023-07-09T04:35:18;6.72;;;5.57;;
11328;SDS011;5719;42.714;23.732;2023-07-09T04:37:45;14.75;;;6.35;;
11328;SDS011;5719;42.714;23.732;2023-07-09T04:40:12;15.25;;;5.60;;
11328;SDS011;5719;42.714;23.732;2023-07-09T04:42:40;8.98;;;5.15;;
11328;SDS011;5719;42.714;23.732;2023-07-09T04:45:08;8.90;;;5.38;;
11328;SDS011;5719;42.714;23.732;2023-07-09T04:47:37;6.75;;;4.97;;
11328;SDS011;5719;42.714;23.732;2023-07-09T04:50:06;13.82;;;5.15;;
11328;SDS011;5719;42.714;23.732;2023-07-09T04:52:35;5.80;;;5.15;;
11328;SDS011;5719;42.714;23.732;2023-07-09T04:55:02;5.25;;;4.63;;
11328;SDS011;5719;42.714;23.732;2023-07-09T04:57:30;10.00;;;4.90;;
11328;SDS011;5719;42.714;23.732;2023-07-09T04:59:57;5.63;;;4.82;;
11328;SDS011;5719;42.714;23.732;2023-07-09T05:02:24;7.75;;;4.68;;
11328;SDS011;5719;42.714;23.732;2023-07-09T05:04:51;5.68;;;4.50;;
11328;SDS011;5719;42.714;23.732;2023-07-09T05:07:19;13.35;;;5.28;;
11328;SDS011;5719;42.714;23.732;2023-07-09T05:09:46;8.90;;;4.63;;
11328;SDS011;5719;42.714;23.732;2023-07-09T05:12:13;8.93;;;4.80;;
11328;SDS011;5719;42.714;23.732;2023-07-09T05:14:40;5.32;;;4.20;;
11328;SDS011;5719;42.714;23.732;2023-07-09T05:17:07;8.85;;;4.63;;
11328;SDS011;5719;42.714;23.732;2023-07-09T05:19:35;6.32;;;4.45;;
11328;SDS011;5719;42.714;23.732;2023-07-09T05:34:55;6.88;;;3.88;;
11328;SDS011;5719;42.714;23.732;2023-07-09T05:37:22;6.70;;;4.28;;
11328;SDS011;5719;42.714;23.732;2023-07-09T05:39:49;10.07;;;4.22;;
11328;SDS011;5719;42.714;23.732;2023-07-09T05:42:16;5.38;;;3.80;;
11328;SDS011;5719;42.714;23.732;2023-07-09T05:44:43;6.75;;;3.85;;
11328;SDS011;5719;42.714;23.732;2023-07-09T05:47:10;6.53;;;3.90;;
11328;SDS011;5719;42.714;23.732;2023-07-09T05:49:37;8.10;;;3.92;;
11328;SDS011;5719;42.714;23.732;2023-07-09T05:52:06;6.45;;;3.95;;
11328;SDS011;5719;42.714;23.732;2023-07-09T05:54:33;7.57;;;3.70;;
11328;SDS011;5719;42.714;23.732;2023-07-09T05:57:00;9.10;;;4.25;;
11328;SDS011;5719;42.714;23.732;2023-07-09T05:59:27;7.32;;;3.58;;
11328;SDS011;5719;42.714;23.732;2023-07-09T06:01:54;7.95;;;3.70;;
11328;SDS011;5719;42.714;23.732;2023-07-09T06:04:21;6.55;;;3.28;;
11328;SDS011;5719;42.714;23.732;2023-07-09T06:06:50;5.70;;;3.50;;
11328;SDS011;5719;42.714;23.732;2023-07-09T06:09:18;7.80;;;3.45;;
11328;SDS011;5719;42.714;23.732;2023-07-09T06:11:45;6.15;;;3.05;;
11328;SDS011;5719;42.714;23.732;2023-07-09T06:14:12;4.38;;;3.28;;
11328;SDS011;5719;42.714;23.732;2023-07-09T06:16:39;6.50;;;3.90;;
11328;SDS011;5719;42.714;23.732;2023-07-09T06:19:06;3.75;;;3.10;;
11328;SDS011;5719;42.714;23.732;2023-07-09T06:21:33;5.10;;;3.90;;
11328;SDS011;5719;42.714;23.732;2023-07-09T06:24:00;6.38;;;3.00;;
11328;SDS011;5719;42.714;23.732;2023-07-09T06:26:28;3.67;;;3.38;;
11328;SDS011;5719;42.714;23.732;2023-07-09T06:28:55;9.48;;;2.85;;
11328;SDS011;5719;42.714;23.732;2023-07-09T06:31:22;5.30;;;3.15;;
11328;SDS011;5719;42.714;23.732;2023-07-09T06:33:50;6.15;;;3.28;;
11328;SDS011;5719;42.714;23.732;2023-07-09T06:36:18;3.92;;;3.60;;
11328;SDS011;5719;42.714;23.732;2023-07-09T06:38:46;9.63;;;3.50;;
11328;SDS011;5719;42.714;23.732;2023-07-09T06:41:13;6.93;;;3.22;;
11328;SDS011;5719;42.714;23.732;2023-07-09T06:43:43;10.73;;;3.80;;
11328;SDS011;5719;42.714;23.732;2023-07-09T06:46:11;4.80;;;3.05;;
11328;SDS011;5719;42.714;23.732;2023-07-09T06:48:39;7.22;;;3.42;;
11328;SDS011;5719;42.714;23.732;2023-07-09T06:51:06;9.27;;;3.80;;
11328;SDS011;5719;42.714;23.732;2023-07-09T06:53:33;5.32;;;3.80;;
11328;SDS011;5719;42.714;23.732;2023-07-09T06:56:01;7.13;;;3.78;;
11328;SDS011;5719;42.714;23.732;2023-07-09T06:58:30;6.18;;;3.65;;
11328;SDS011;5719;42.714;23.732;2023-07-09T07:01:01;5.28;;;3.60;;
11328;SDS011;5719;42.714;23.732;2023-07-09T07:03:29;6.05;;;3.75;;
11328;SDS011;5719;42.714;23.732;2023-07-09T07:05:57;5.25;;;3.80;;
11328;SDS011;5719;42.714;23.732;2023-07-09T07:08:25;6.45;;;3.80;;
11328;SDS011;5719;42.714;23.732;2023-07-09T07:10:54;6.75;;;3.40;;
11328;SDS011;5719;42.714;23.732;2023-07-09T07:13:27;7.20;;;3.65;;
11328;SDS011;5719;42.714;23.732;2023-07-09T07:15:54;6.10;;;3.35;;
11328;SDS011;5719;42.714;23.732;2023-07-09T07:18:22;5.60;;;2.75;;
11328;SDS011;5719;42.714;23.732;2023-07-09T07:20:49;10.73;;;3.63;;
11328;SDS011;5719;42.714;23.732;2023-07-09T07:23:16;7.43;;;3.53;;
11328;SDS011;5719;42.714;23.732;2023-07-09T07:25:44;9.77;;;3.10;;
11328;SDS011;5719;42.714;23.732;2023-07-09T07:28:11;6.78;;;3.22;;
11328;SDS011;5719;42.714;23.732;2023-07-09T07:30:38;6.00;;;3.13;;
11328;SDS011;5719;42.714;23.732;2023-07-09T07:33:05;2.97;;;2.67;;
11328;SDS011;5719;42.714;23.732;2023-07-09T07:35:34;10.63;;;3.28;;
11328;SDS011;5719;42.714;23.732;2023-07-09T07:38:01;10.15;;;3.05;;
11328;SDS011;5719;42.714;23.732;2023-07-09T07:40:28;11.32;;;3.45;;
11328;SDS011;5719;42.714;23.732;2023-07-09T07:42:55;5.68;;;2.83;;
11328;SDS011;5719;42.714;23.732;2023-07-09T07:45:22;5.32;;;3.13;;
11328;SDS011;5719;42.714;23.732;2023-07-09T07:47:49;14.10;;;2.70;;
11328;SDS011;5719;42.714;23.732;2023-07-09T07:50:17;9.63;;;3.05;;
11328;SDS011;5719;42.714;23.732;2023-07-09T07:52:46;9.55;;;2.97;;
11328;SDS011;5719;42.714;23.732;2023-07-09T07:55:13;5.43;;;2.90;;
11328;SDS011;5719;42.714;23.732;2023-07-09T07:57:40;6.15;;;2.60;;
11328;SDS011;5719;42.714;23.732;2023-07-09T08:00:07;6.97;;;3.22;;
11328;SDS011;5719;42.714;23.732;2023-07-09T08:02:35;6.30;;;3.03;;
11328;SDS011;5719;42.714;23.732;2023-07-09T08:05:02;3.17;;;2.88;;
11328;SDS011;5719;42.714;23.732;2023-07-09T08:07:30;5.40;;;2.90;;
11328;SDS011;5719;42.714;23.732;2023-07-09T08:09:59;4.78;;;3.35;;
11328;SDS011;5719;42.714;23.732;2023-07-09T08:12:25;6.35;;;2.75;;
11328;SDS011;5719;42.714;23.732;2023-07-09T08:14:52;4.88;;;3.00;;
11328;SDS011;5719;42.714;23.732;2023-07-09T08:17:19;3.97;;;2.92;;
11328;SDS011;5719;42.714;23.732;2023-07-09T08:19:47;6.05;;;2.60;;
11328;SDS011;5719;42.714;23.732;2023-07-09T08:22:16;6.32;;;3.13;;
11328;SDS011;5719;42.714;23.732;2023-07-09T08:24:46;3.13;;;2.83;;
11328;SDS011;5719;42.714;23.732;2023-07-09T08:27:14;8.50;;;2.65;;
11328;SDS011;5719;42.714;23.732;2023-07-09T08:29:41;4.35;;;2.42;;
11328;SDS011;5719;42.714;23.732;2023-07-09T08:32:09;3.28;;;2.55;;
11328;SDS011;5719;42.714;23.732;2023-07-09T08:34:37;6.63;;;2.90;;
11328;SDS011;5719;42.714;23.732;2023-07-09T08:37:05;3.55;;;2.85;;
11328;SDS011;5719;42.714;23.732;2023-07-09T08:39:32;6.18;;;2.85;;
11328;SDS011;5719;42.714;23.732;2023-07-09T08:42:00;14.90;;;3.58;;
11328;SDS011;5719;42.714;23.732;2023-07-09T08:44:37;11.90;;;2.75;;
11328;SDS011;5719;42.714;23.732;2023-07-09T08:47:22;3.70;;;2.72;;
11328;SDS011;5719;42.714;23.732;2023-07-09T08:49:56;3.40;;;2.47;;
11328;SDS011;5719;42.714;23.732;2023-07-09T08:52:28;2.85;;;2.45;;
11328;SDS011;5719;42.714;23.732;2023-07-09T08:55:00;4.80;;;2.70;;
11328;SDS011;5719;42.714;23.732;2023-07-09T08:57:33;3.08;;;2.78;;
11328;SDS011;5719;42.714;23.732;2023-07-09T09:00:07;3.72;;;3.00;;
11328;SDS011;5719;42.714;23.732;2023-07-09T09:02:43;8.05;;;2.83;;
11328;SDS011;5719;42.714;23.732;2023-07-09T09:05:17;5.28;;;2.58;;
11328;SDS011;5719;42.714;23.732;2023-07-09T09:07:48;5.85;;;2.97;;
11328;SDS011;5719;42.714;23.732;2023-07-09T09:10:23;5.15;;;2.72;;
11328;SDS011;5719;42.714;23.732;2023-07-09T09:12:59;8.63;;;2.47;;
11328;SDS011;5719;42.714;23.732;2023-07-09T09:15:33;5.80;;;2.42;;
11328;SDS011;5719;42.714;23.732;2023-07-09T09:18:10;5.30;;;2.47;;
11328;SDS011;5719;42.714;23.732;2023-07-09T09:20:46;6.63;;;2.70;;
11328;SDS011;5719;42.714;23.732;2023-07-09T09:23:18;4.05;;;2.88;;
11328;SDS011;5719;42.714;23.732;2023-07-09T09:25:47;5.75;;;2.60;;
11328;SDS011;5719;42.714;23.732;2023-07-09T09:28:18;5.05;;;2.60;;
11328;SDS011;5719;42.714;23.732;2023-07-09T09:30:49;6.70;;;2.97;;
11328;SDS011;5719;42.714;23.732;2023-07-09T09:33:16;4.93;;;3.10;;
11328;SDS011;5719;42.714;23.732;2023-07-09T09:35:45;6.93;;;2.58;;
11328;SDS011;5719;42.714;23.732;2023-07-09T09:38:16;5.43;;;2.90;;
11328;SDS011;5719;42.714;23.732;2023-07-09T09:40:44;4.97;;;3.20;;
11328;SDS011;5719;42.714;23.732;2023-07-09T09:43:12;3.78;;;2.92;;
11328;SDS011;5719;42.714;23.732;2023-07-09T09:45:41;3.60;;;2.80;;
11328;SDS011;5719;42.714;23.732;2023-07-09T09:48:14;5.50;;;2.90;;
11328;SDS011;5719;42.714;23.732;2023-07-09T09:53:13;3.45;;;3.00;;
11328;SDS011;5719;42.714;23.732;2023-07-09T09:58:12;5.13;;;2.72;;
11328;SDS011;5719;42.714;23.732;2023-07-09T10:00:46;5.75;;;2.80;;
11328;SDS011;5719;42.714;23.732;2023-07-09T10:03:15;4.00;;;3.00;;
11328;SDS011;5719;42.714;23.732;2023-07-09T10:05:44;6.10;;;2.58;;
11328;SDS011;5719;42.714;23.732;2023-07-09T10:08:15;5.50;;;3.00;;
11328;SDS011;5719;42.714;23.732;2023-07-09T10:10:52;13.90;;;2.70;;
11328;SDS011;5719;42.714;23.732;2023-07-09T10:13:26;12.65;;;3.17;;
11328;SDS011;5719;42.714;23.732;2023-07-09T10:16:01;3.05;;;2.78;;
11328;SDS011;5719;42.714;23.732;2023-07-09T10:18:39;4.28;;;2.75;;
11328;SDS011;5719;42.714;23.732;2023-07-09T10:21:15;9.70;;;2.78;;
11328;SDS011;5719;42.714;23.732;2023-07-09T10:23:52;33.90;;;4.38;;
11328;SDS011;5719;42.714;23.732;2023-07-09T10:26:26;8.77;;;2.97;;
11328;SDS011;5719;42.714;23.732;2023-07-09T10:31:54;5.43;;;2.92;;
11328;SDS011;5719;42.714;23.732;2023-07-09T10:34:28;6.85;;;3.17;;
11328;SDS011;5719;42.714;23.732;2023-07-09T10:37:08;3.00;;;2.80;;
11328;SDS011;5719;42.714;23.732;2023-07-09T10:39:53;4.90;;;2.97;;
11328;SDS011;5719;42.714;23.732;2023-07-09T10:42:24;3.22;;;2.63;;
11328;SDS011;5719;42.714;23.732;2023-07-09T10:44:55;3.10;;;2.72;;
11328;SDS011;5719;42.714;23.732;2023-07-09T10:47:27;8.48;;;2.88;;
11328;SDS011;5719;42.714;23.732;2023-07-09T10:49:58;9.52;;;3.00;;
11328;SDS011;5719;42.714;23.732;2023-07-09T10:52:30;6.47;;;3.00;;
11328;SDS011;5719;42.714;23.732;2023-07-09T10:55:02;5.15;;;2.90;;
11328;SDS011;5719;42.714;23.732;2023-07-09T10:57:35;3.17;;;2.90;;
11328;SDS011;5719;42.714;23.732;2023-07-09T11:00:15;3.58;;;3.00;;
11328;SDS011;5719;42.714;23.732;2023-07-09T11:02:44;5.30;;;2.60;;
11328;SDS011;5719;42.714;23.732;2023-07-09T11:05:15;4.28;;;2.60;;
11328;SDS011;5719;42.714;23.732;2023-07-09T11:07:45;3.60;;;2.72;;
11328;SDS011;5719;42.714;23.732;2023-07-09T11:10:21;3.40;;;2.60;;
11328;SDS011;5719;42.714;23.732;2023-07-09T11:12:54;3.20;;;2.55;;
11328;SDS011;5719;42.714;23.732;2023-07-09T11:15:27;2.80;;;2.38;;
11328;SDS011;5719;42.714;23.732;2023-07-09T11:17:57;7.63;;;3.05;;
11328;SDS011;5719;42.714;23.732;2023-07-09T11:20:28;3.95;;;2.63;;
11328;SDS011;5719;42.714;23.732;2023-07-09T11:23:01;5.13;;;2.90;;
11328;SDS011;5719;42.714;23.732;2023-07-09T11:25:31;2.83;;;2.50;;
11328;SDS011;5719;42.714;23.732;2023-07-09T11:28:07;4.38;;;2.63;;
11328;SDS011;5719;42.714;23.732;2023-07-09T11:30:45;3.28;;;2.47;;
11328;SDS011;5719;42.714;23.732;2023-07-09T11:33:17;4.70;;;2.63;;
11328;SDS011;5719;42.714;23.732;2023-07-09T11:35:47;2.72;;;2.22;;
11328;SDS011;5719;42.714;23.732;2023-07-09T11:38:16;3.22;;;2.65;;
11328;SDS011;5719;42.714;23.732;2023-07-09T11:40:46;5.85;;;3.00;;
11328;SDS011;5719;42.714;23.732;2023-07-09T11:43:25;5.43;;;2.53;;
11328;SDS011;5719;42.714;23.732;2023-07-09T11:45:54;5.70;;;2.50;;
11328;SDS011;5719;42.714;23.732;2023-07-09T11:48:26;3.95;;;2.70;;
11328;SDS011;5719;42.714;23.732;2023-07-09T11:51:02;2.78;;;2.28;;
11328;SDS011;5719;42.714;23.732;2023-07-09T11:53:35;4.28;;;2.55;;
11328;SDS011;5719;42.714;23.732;2023-07-09T11:56:08;3.97;;;2.70;;
11328;SDS011;5719;42.714;23.732;2023-07-09T11:58:35;3.35;;;2.10;;
11328;SDS011;5719;42.714;23.732;2023-07-09T12:01:02;3.75;;;2.28;;
11328;SDS011;5719;42.714;23.732;2023-07-09T12:03:39;4.63;;;2.60;;
11328;SDS011;5719;42.714;23.732;2023-07-09T12:06:16;2.95;;;2.58;;
11328;SDS011;5719;42.714;23.732;2023-07-09T12:08:45;4.05;;;2.90;;
11328;SDS011;5719;42.714;23.732;2023-07-09T12:11:21;3.45;;;2.70;;
11328;SDS011;5719;42.714;23.732;2023-07-09T12:13:49;4.13;;;2.63;;
11328;SDS011;5719;42.714;23.732;2023-07-09T12:16:21;7.35;;;2.70;;
11328;SDS011;5719;42.714;23.732;2023-07-09T12:18:49;2.90;;;2.70;;
11328;SDS011;5719;42.714;23.732;2023-07-09T12:21:18;4.95;;;2.90;;
11328;SDS011;5719;42.714;23.732;2023-07-09T12:23:45;3.70;;;2.78;;
11328;SDS011;5719;42.714;23.732;2023-07-09T12:26:14;7.80;;;3.00;;
11328;SDS011;5719;42.714;23.732;2023-07-09T12:28:42;6.25;;;2.97;;
11328;SDS011;5719;42.714;23.732;2023-07-09T12:31:12;2.75;;;2.55;;
11328;SDS011;5719;42.714;23.732;2023-07-09T12:33:46;3.88;;;2.60;;
11328;SDS011;5719;42.714;23.732;2023-07-09T12:36:17;5.85;;;2.60;;
11328;SDS011;5719;42.714;23.732;2023-07-09T12:38:46;5.80;;;2.47;;
11328;SDS011;5719;42.714;23.732;2023-07-09T12:41:17;3.65;;;2.70;;
11328;SDS011;5719;42.714;23.732;2023-07-09T12:43:47;3.28;;;2.97;;
11328;SDS011;5719;42.714;23.732;2023-07-09T12:46:14;3.35;;;2.60;;
11328;SDS011;5719;42.714;23.732;2023-07-09T12:48:42;2.88;;;2.67;;
11328;SDS011;5719;42.714;23.732;2023-07-09T12:51:13;3.13;;;2.53;;
11328;SDS011;5719;42.714;23.732;2023-07-09T12:53:44;3.20;;;2.28;;
11328;SDS011;5719;42.714;23.732;2023-07-09T12:56:12;5.00;;;2.60;;
11328;SDS011;5719;42.714;23.732;2023-07-09T12:58:40;6.22;;;2.30;;
11328;SDS011;5719;42.714;23.732;2023-07-09T13:01:08;3.92;;;2.55;;
11328;SDS011;5719;42.714;23.732;2023-07-09T13:03:41;3.30;;;2.40;;
11328;SDS011;5719;42.714;23.732;2023-07-09T13:06:23;2.50;;;2.20;;
11328;SDS011;5719;42.714;23.732;2023-07-09T13:08:57;6.88;;;2.55;;
11328;SDS011;5719;42.714;23.732;2023-07-09T13:11:26;3.25;;;2.50;;
11328;SDS011;5719;42.714;23.732;2023-07-09T13:13:59;3.33;;;2.45;;
11328;SDS011;5719;42.714;23.732;2023-07-09T13:16:30;2.95;;;2.75;;
11328;SDS011;5719;42.714;23.732;2023-07-09T13:19:07;3.28;;;2.60;;
11328;SDS011;5719;42.714;23.732;2023-07-09T13:21:34;4.32;;;2.45;;
11328;SDS011;5719;42.714;23.732;2023-07-09T13:24:07;6.80;;;2.35;;
11328;SDS011;5719;42.714;23.732;2023-07-09T13:26:40;4.75;;;2.40;;
11328;SDS011;5719;42.714;23.732;2023-07-09T13:29:10;5.50;;;2.42;;
11328;SDS011;5719;42.714;23.732;2023-07-09T13:31:40;3.58;;;2.55;;
11328;SDS011;5719;42.714;23.732;2023-07-09T13:34:08;3.78;;;2.72;;
11328;SDS011;5719;42.714;23.732;2023-07-09T13:36:44;2.50;;;2.30;;
11328;SDS011;5719;42.714;23.732;2023-07-09T13:39:13;3.60;;;1.92;;
11328;SDS011;5719;42.714;23.732;2023-07-09T13:41:41;4.60;;;2.70;;
11328;SDS011;5719;42.714;23.732;2023-07-09T13:44:13;2.20;;;2.00;;
11328;SDS011;5719;42.714;23.732;2023-07-09T13:46:42;2.60;;;2.40;;
11328;SDS011;5719;42.714;23.732;2023-07-09T13:49:10;9.27;;;2.22;;
11328;SDS011;5719;42.714;23.732;2023-07-09T13:51:39;3.45;;;2.05;;
11328;SDS011;5719;42.714;23.732;2023-07-09T13:54:14;2.63;;;2.17;;
11328;SDS011;5719;42.714;23.732;2023-07-09T13:56:42;4.22;;;2.13;;
11328;SDS011;5719;42.714;23.732;2023-07-09T13:59:12;8.68;;;2.60;;
11328;SDS011;5719;42.714;23.732;2023-07-09T14:01:41;5.25;;;2.40;;
11328;SDS011;5719;42.714;23.732;2023-07-09T14:04:09;4.35;;;2.50;;
11328;SDS011;5719;42.714;23.732;2023-07-09T14:06:37;2.92;;;2.28;;
11328;SDS011;5719;42.714;23.732;2023-07-09T14:09:04;2.33;;;2.20;;
11328;SDS011;5719;42.714;23.732;2023-07-09T14:11:33;3.00;;;2.15;;
11328;SDS011;5719;42.714;23.732;2023-07-09T14:14:07;3.10;;;2.13;;
11328;SDS011;5719;42.714;23.732;2023-07-09T14:16:43;6.80;;;2.40;;
11328;SDS011;5719;42.714;23.732;2023-07-09T14:19:12;3.30;;;2.30;;
11328;SDS011;5719;42.714;23.732;2023-07-09T14:21:40;2.58;;;2.38;;
11328;SDS011;5719;42.714;23.732;2023-07-09T14:24:12;3.90;;;2.08;;
11328;SDS011;5719;42.714;23.732;2023-07-09T14:26:46;3.03;;;2.30;;
11328;SDS011;5719;42.714;23.732;2023-07-09T14:29:14;2.97;;;2.30;;
11328;SDS011;5719;42.714;23.732;2023-07-09T14:31:41;3.10;;;2.30;;
11328;SDS011;5719;42.714;23.732;2023-07-09T14:34:16;6.50;;;2.13;;
11328;SDS011;5719;42.714;23.732;2023-07-09T14:36:46;6.03;;;2.80;;
11328;SDS011;5719;42.714;23.732;2023-07-09T14:39:13;3.63;;;2.10;;
11328;SDS011;5719;42.714;23.732;2023-07-09T14:41:40;4.50;;;2.05;;
11328;SDS011;5719;42.714;23.732;2023-07-09T14:46:47;6.63;;;2.40;;
11328;SDS011;5719;42.714;23.732;2023-07-09T14:49:14;4.93;;;2.47;;
11328;SDS011;5719;42.714;23.732;2023-07-09T14:51:41;6.45;;;2.28;;
11328;SDS011;5719;42.714;23.732;2023-07-09T14:54:10;3.17;;;2.08;;
11328;SDS011;5719;42.714;23.732;2023-07-09T14:56:45;4.28;;;1.90;;
11328;SDS011;5719;42.714;23.732;2023-07-09T14:59:12;2.40;;;1.90;;
11328;SDS011;5719;42.714;23.732;2023-07-09T15:01:41;2.95;;;2.05;;
11328;SDS011;5719;42.714;23.732;2023-07-09T15:04:21;5.07;;;2.22;;
11328;SDS011;5719;42.714;23.732;2023-07-09T15:06:54;1.92;;;1.63;;
11328;SDS011;5719;42.714;23.732;2023-07-09T15:09:24;2.33;;;1.90;;
11328;SDS011;5719;42.714;23.732;2023-07-09T15:11:52;6.03;;;2.20;;
11328;SDS011;5719;42.714;23.732;2023-07-09T15:14:23;4.03;;;2.15;;
11328;SDS011;5719;42.714;23.732;2023-07-09T15:16:52;3.08;;;2.40;;
11328;SDS011;5719;42.714;23.732;2023-07-09T15:19:20;3.40;;;2.30;;
11328;SDS011;5719;42.714;23.732;2023-07-09T15:21:49;2.80;;;1.85;;
11328;SDS011;5719;42.714;23.732;2023-07-09T15:24:19;2.15;;;1.90;;